Time;durP1;ratioP1;P1;durP2;ratioP2;P2;SDS_P1;SDS_P2;PMS_P1;PMS_P2;Temp;Humidity;BMP_temperature;BMP_pressure;BME280_temperature;BME280_humidity;BME280_pressure;Samples;Min_cycle;Max_cycle;Signal;HPM_P1;HPM_P2
2022/08/16 00:00:17;;;;;;;4.68;3.33;;;;;;;;;;4824104;29;20050;-45
2022/08/16 00:02:48;;;;;;;6.68;3.60;;;;;;;;;;4824300;29;20111;-45
2022/08/16 00:05:18;;;;;;;5.50;3.63;;;;;;;;;;4824168;29;20038;-51
2022/08/16 00:07:46;;;;;;;11.65;4.32;;;;;;;;;;4824051;29;20047;-45
2022/08/16 00:10:14;;;;;;;8.65;3.55;;;;;;;;;;4824170;29;20054;-46
2022/08/16 00:12:47;;;;;;;6.32;4.15;;;;;;;;;;4824158;29;20049;-50
2022/08/16 00:15:30;;;;;;;9.13;4.03;;;;;;;;;;4824128;29;20042;-48
2022/08/16 00:18:18;;;;;;;6.05;3.78;;;;;;;;;;4824044;29;20571;-44
2022/08/16 00:20:56;;;;;;;5.22;3.70;;;;;;;;;;4823916;29;20527;-51
2022/08/16 00:23:24;;;;;;;6.90;4.43;;;;;;;;;;4823141;29;20093;-47
2022/08/16 00:26:06;;;;;;;7.22;3.65;;;;;;;;;;4823782;29;20050;-47
2022/08/16 00:28:53;;;;;;;9.63;4.60;;;;;;;;;;4822425;29;20534;-45
2022/08/16 00:31:21;;;;;;;9.48;4.35;;;;;;;;;;4823366;29;20062;-50
2022/08/16 00:33:50;;;;;;;9.07;3.90;;;;;;;;;;4823696;29;20103;-48
2022/08/16 00:36:18;;;;;;;7.43;4.70;;;;;;;;;;4823666;29;20050;-46
2022/08/16 00:38:46;;;;;;;6.03;3.85;;;;;;;;;;4823708;29;20054;-51
2022/08/16 00:41:14;;;;;;;6.88;3.95;;;;;;;;;;4823582;29;20042;-45
2022/08/16 00:43:43;;;;;;;5.95;4.05;;;;;;;;;;4823668;29;20042;-49
2022/08/16 00:46:28;;;;;;;5.93;3.90;;;;;;;;;;4823158;29;20835;-48
2022/08/16 00:49:05;;;;;;;7.40;4.03;;;;;;;;;;4823460;29;20046;-50
2022/08/16 00:51:43;;;;;;;6.35;2.83;;;;;;;;;;4823620;29;20073;-51
2022/08/16 00:54:13;;;;;;;5.07;3.40;;;;;;;;;;4823480;29;20038;-48
2022/08/16 00:56:50;;;;;;;5.68;4.00;;;;;;;;;;4823352;29;20050;-49
2022/08/16 00:59:29;;;;;;;9.23;3.83;;;;;;;;;;4823031;29;20049;-50
2022/08/16 01:02:03;;;;;;;7.60;4.22;;;;;;;;;;4822239;29;20046;-48
2022/08/16 01:04:50;;;;;;;6.05;4.30;;;;;;;;;;4823303;29;20053;-51
2022/08/16 01:07:39;;;;;;;6.38;4.38;;;;;;;;;;4823259;29;20058;-44
2022/08/16 01:10:17;;;;;;;7.05;4.05;;;;;;;;;;4823269;29;20075;-46
2022/08/16 01:12:44;;;;;;;6.03;3.38;;;;;;;;;;4823132;29;20556;-46
2022/08/16 01:15:14;;;;;;;6.25;3.72;;;;;;;;;;4823608;29;20046;-45
2022/08/16 01:17:45;;;;;;;5.93;4.05;;;;;;;;;;4806442;29;20042;-47
2022/08/16 01:20:26;;;;;;;5.57;3.40;;;;;;;;;;4835785;29;20042;-48
2022/08/16 01:23:06;;;;;;;6.28;3.47;;;;;;;;;;4840783;29;20054;-46
2022/08/16 01:25:40;;;;;;;5.40;3.83;;;;;;;;;;4839700;29;20080;-52
2022/08/16 01:28:14;;;;;;;6.53;3.40;;;;;;;;;;4824608;29;20050;-47
2022/08/16 01:30:55;;;;;;;7.72;4.25;;;;;;;;;;4841128;29;20060;-49
2022/08/16 01:33:24;;;;;;;8.35;4.55;;;;;;;;;;4839921;29;20050;-51
2022/08/16 01:36:08;;;;;;;9.15;4.88;;;;;;;;;;4839934;29;20133;-50
2022/08/16 01:38:47;;;;;;;9.65;4.53;;;;;;;;;;4839729;29;20046;-50
2022/08/16 01:41:25;;;;;;;;;;;;;;;;;;4825286;29;20042;-46
2022/08/16 01:43:56;;;;;;;4.90;3.42;;;;;;;;;;4843109;29;19928;-46
2022/08/16 01:46:32;;;;;;;5.78;3.60;;;;;;;;;;4843485;29;20042;-51
2022/08/16 01:49:25;;;;;;;5.13;3.25;;;;;;;;;;4843629;29;20053;-49
2022/08/16 01:52:16;;;;;;;4.70;3.28;;;;;;;;;;4844834;29;20038;-49
2022/08/16 01:55:10;;;;;;;5.72;2.90;;;;;;;;;;4843445;29;20049;-47
2022/08/16 01:57:41;;;;;;;5.95;3.25;;;;;;;;;;4843256;29;20125;-46
2022/08/16 02:00:20;;;;;;;4.35;3.30;;;;;;;;;;4828206;29;20056;-49
2022/08/16 02:02:56;;;;;;;4.90;3.47;;;;;;;;;;4844552;29;20065;-48
2022/08/16 02:05:24;;;;;;;7.07;3.20;;;;;;;;;;4843310;29;20042;-49
2022/08/16 02:08:00;;;;;;;10.70;3.17;;;;;;;;;;4844298;29;20483;-50
2022/08/16 02:10:28;;;;;;;7.28;3.83;;;;;;;;;;4827959;29;20177;-45
2022/08/16 02:13:02;;;;;;;5.63;3.80;;;;;;;;;;4843161;29;20046;-50
2022/08/16 02:15:34;;;;;;;9.38;3.50;;;;;;;;;;4843021;29;20053;-48
2022/08/16 02:18:12;;;;;;;8.10;4.28;;;;;;;;;;4827499;29;20045;-48
2022/08/16 02:20:48;;;;;;;6.40;3.72;;;;;;;;;;4828803;29;20053;-48
2022/08/16 02:23:21;;;;;;;9.63;4.88;;;;;;;;;;4824428;29;20058;-48
2022/08/16 02:25:49;;;;;;;5.35;4.00;;;;;;;;;;4825655;29;20054;-49
2022/08/16 02:28:23;;;;;;;5.60;3.58;;;;;;;;;;4824553;29;20077;-48
2022/08/16 02:30:52;;;;;;;5.97;3.20;;;;;;;;;;4825292;29;20050;-48
2022/08/16 02:33:21;;;;;;;6.78;3.78;;;;;;;;;;4825597;29;20054;-48
2022/08/16 02:35:52;;;;;;;29.17;17.40;;;;;;;;;;4824197;29;20411;-50
2022/08/16 02:38:29;;;;;;;7.03;4.93;;;;;;;;;;4824305;29;20050;-48
2022/08/16 02:41:00;;;;;;;6.68;4.35;;;;;;;;;;4824354;29;20135;-51
2022/08/16 02:43:34;;;;;;;5.35;3.83;;;;;;;;;;4824124;29;20411;-49
2022/08/16 02:46:08;;;;;;;8.40;4.78;;;;;;;;;;4823992;29;20054;-47
2022/08/16 02:48:38;;;;;;;10.88;6.00;;;;;;;;;;4823996;29;20111;-50
2022/08/16 02:51:17;;;;;;;7.00;4.43;;;;;;;;;;4823906;29;20080;-44
2022/08/16 02:53:50;;;;;;;5.18;3.70;;;;;;;;;;4823337;29;20519;-48
2022/08/16 02:56:20;;;;;;;6.05;3.60;;;;;;;;;;4823858;29;20042;-47
2022/08/16 02:58:51;;;;;;;6.28;3.70;;;;;;;;;;4825137;29;20141;-48
2022/08/16 03:01:24;;;;;;;5.00;3.58;;;;;;;;;;4823614;29;20054;-50
2022/08/16 03:04:20;;;;;;;5.70;4.07;;;;;;;;;;4823679;29;20064;-47
2022/08/16 03:07:07;;;;;;;5.75;3.92;;;;;;;;;;4823436;29;20050;-48
2022/08/16 03:09:47;;;;;;;6.60;3.65;;;;;;;;;;4808689;29;20046;-51
2022/08/16 03:12:20;;;;;;;9.38;3.83;;;;;;;;;;4823616;29;20046;-46
2022/08/16 03:15:04;;;;;;;7.30;3.75;;;;;;;;;;4823930;29;20075;-45
2022/08/16 03:17:35;;;;;;;6.85;4.13;;;;;;;;;;4808924;29;20046;-45
2022/08/16 03:20:21;;;;;;;7.47;5.22;;;;;;;;;;4835423;29;20053;-46
2022/08/16 03:23:01;;;;;;;8.68;4.20;;;;;;;;;;4841816;29;20443;-48
2022/08/16 03:25:29;;;;;;;4.80;3.67;;;;;;;;;;4837989;29;20058;-49
2022/08/16 03:28:13;;;;;;;4.95;3.40;;;;;;;;;;4823509;29;20530;-46
2022/08/16 03:30:46;;;;;;;4.47;3.45;;;;;;;;;;4823388;29;20107;-45
2022/08/16 03:33:15;;;;;;;7.72;3.65;;;;;;;;;;4823506;29;20134;-44
2022/08/16 03:35:58;;;;;;;9.13;3.88;;;;;;;;;;4823458;29;20039;-45
2022/08/16 03:38:48;;;;;;;6.32;3.75;;;;;;;;;;4822880;29;20054;-44
2022/08/16 03:41:16;;;;;;;4.70;3.50;;;;;;;;;;4823273;29;20046;-43
2022/08/16 03:43:59;;;;;;;6.57;3.53;;;;;;;;;;4823330;29;20043;-48
2022/08/16 03:46:29;;;;;;;6.88;4.32;;;;;;;;;;4824667;29;20056;-46
2022/08/16 03:49:22;;;;;;;6.97;3.90;;;;;;;;;;4822970;29;20511;-45
2022/08/16 03:52:05;;;;;;;6.15;3.33;;;;;;;;;;4823268;29;20046;-43
2022/08/16 03:54:34;;;;;;;4.63;3.45;;;;;;;;;;4823145;29;20050;-45
2022/08/16 03:57:03;;;;;;;8.45;4.00;;;;;;;;;;4808173;29;20069;-47
2022/08/16 03:59:32;;;;;;;7.25;3.28;;;;;;;;;;4822954;29;20091;-44
2022/08/16 04:02:06;;;;;;;5.22;3.22;;;;;;;;;;4823951;29;20463;-45
2022/08/16 04:04:52;;;;;;;7.95;4.35;;;;;;;;;;4822732;29;20073;-46
2022/08/16 04:07:23;;;;;;;9.35;4.22;;;;;;;;;;4822565;29;20068;-44
2022/08/16 04:09:51;;;;;;;7.72;3.53;;;;;;;;;;4823065;29;20050;-44
2022/08/16 04:12:18;;;;;;;10.00;6.18;;;;;;;;;;4822624;29;20058;-43
2022/08/16 04:15:08;;;;;;;17.00;10.32;;;;;;;;;;4824012;29;20042;-47
2022/08/16 04:17:42;;;;;;;11.70;7.28;;;;;;;;;;4822731;29;20058;-46
2022/08/16 04:20:12;;;;;;;5.68;3.90;;;;;;;;;;4833505;29;20049;-46
2022/08/16 04:22:59;;;;;;;6.13;3.88;;;;;;;;;;4840280;29;20046;-45
2022/08/16 04:25:29;;;;;;;6.10;4.07;;;;;;;;;;4839846;29;20054;-47
2022/08/16 04:27:58;;;;;;;5.63;4.28;;;;;;;;;;4840576;29;20095;-47
2022/08/16 04:30:46;;;;;;;5.65;4.00;;;;;;;;;;4840645;29;20042;-44
2022/08/16 04:33:17;;;;;;;5.85;4.88;;;;;;;;;;4840483;29;20138;-46
2022/08/16 04:35:57;;;;;;;15.63;9.27;;;;;;;;;;4841287;29;20053;-47
2022/08/16 04:38:28;;;;;;;11.55;5.72;;;;;;;;;;4825094;29;20046;-44
2022/08/16 04:40:57;;;;;;;7.70;5.00;;;;;;;;;;4840490;29;20045;-47
2022/08/16 04:43:26;;;;;;;7.30;4.78;;;;;;;;;;4825041;29;20046;-46
2022/08/16 04:45:58;;;;;;;4.45;3.83;;;;;;;;;;4825459;29;20464;-45
2022/08/16 04:48:35;;;;;;;6.85;4.18;;;;;;;;;;4841764;29;20041;-46
2022/08/16 04:51:10;;;;;;;5.82;3.88;;;;;;;;;;4841307;29;20508;-46
2022/08/16 04:53:44;;;;;;;6.25;3.72;;;;;;;;;;4840179;29;20046;-43
2022/08/16 04:56:14;;;;;;;5.07;4.10;;;;;;;;;;4839918;29;20456;-44
2022/08/16 04:58:43;;;;;;;5.47;3.47;;;;;;;;;;4839889;29;20052;-47
2022/08/16 05:01:18;;;;;;;4.95;3.65;;;;;;;;;;4841181;29;20459;-46
2022/08/16 05:03:46;;;;;;;91.82;50.97;;;;;;;;;;4840080;29;20050;-50
2022/08/16 05:06:29;;;;;;;24.38;15.68;;;;;;;;;;4840026;29;20049;-48
2022/08/16 05:09:19;;;;;;;9.40;5.95;;;;;;;;;;4839849;29;20057;-45
2022/08/16 05:11:53;;;;;;;7.97;6.10;;;;;;;;;;4839889;29;20044;-50
2022/08/16 05:14:26;;;;;;;8.80;5.25;;;;;;;;;;4826059;29;20053;-47
2022/08/16 05:17:15;;;;;;;7.70;5.47;;;;;;;;;;4839441;29;20555;-46
2022/08/16 05:19:44;;;;;;;6.53;5.05;;;;;;;;;;4832168;29;20050;-46
2022/08/16 05:22:41;;;;;;;7.32;4.95;;;;;;;;;;4823287;29;20470;-43
2022/08/16 05:25:14;;;;;;;25.55;16.10;;;;;;;;;;4821554;29;20103;-46
2022/08/16 05:27:47;;;;;;;8.70;6.88;;;;;;;;;;4821976;29;20454;-46
2022/08/16 05:30:17;;;;;;;6.95;4.82;;;;;;;;;;4822961;29;20046;-46
2022/08/16 05:33:07;;;;;;;7.97;4.90;;;;;;;;;;4822024;29;20055;-46
2022/08/16 05:35:45;;;;;;;5.78;4.78;;;;;;;;;;4821709;29;20061;-48
2022/08/16 05:38:40;;;;;;;6.65;4.70;;;;;;;;;;4821531;29;20054;-45
2022/08/16 05:41:11;;;;;;;6.80;5.32;;;;;;;;;;4821764;29;20081;-46
2022/08/16 05:43:44;;;;;;;8.02;5.00;;;;;;;;;;4821773;29;20062;-44
2022/08/16 05:46:28;;;;;;;7.60;5.20;;;;;;;;;;4821556;29;20133;-50
2022/08/16 05:49:14;;;;;;;10.82;5.07;;;;;;;;;;4821454;29;20050;-46
2022/08/16 05:51:49;;;;;;;178.93;108.28;;;;;;;;;;4821679;29;20054;-45
2022/08/16 05:54:18;;;;;;;16.15;10.63;;;;;;;;;;4822939;29;20479;-45
2022/08/16 05:56:56;;;;;;;10.10;4.97;;;;;;;;;;4821818;29;20066;-46
2022/08/16 05:59:27;;;;;;;6.25;4.57;;;;;;;;;;4821363;29;20467;-44
2022/08/16 06:01:56;;;;;;;6.15;4.60;;;;;;;;;;4821911;29;20099;-44
2022/08/16 06:04:33;;;;;;;6.38;4.82;;;;;;;;;;4821435;29;20047;-49
2022/08/16 06:07:12;;;;;;;50.67;35.10;;;;;;;;;;4820916;29;20065;-47
2022/08/16 06:10:07;;;;;;;10.13;6.97;;;;;;;;;;4821780;29;20047;-47
2022/08/16 06:12:36;;;;;;;7.80;5.07;;;;;;;;;;4821601;29;20531;-44
2022/08/16 06:15:10;;;;;;;8.95;5.00;;;;;;;;;;4822935;29;20058;-44
2022/08/16 06:17:44;;;;;;;7.95;4.80;;;;;;;;;;4821283;29;20057;-47
2022/08/16 06:20:21;;;;;;;7.38;4.55;;;;;;;;;;4832884;29;20042;-48
2022/08/16 06:23:08;;;;;;;7.55;4.90;;;;;;;;;;4839553;29;20106;-43
2022/08/16 06:26:07;;;;;;;5.53;4.82;;;;;;;;;;4839550;29;20061;-52
2022/08/16 06:28:40;;;;;;;5.38;4.78;;;;;;;;;;4839410;29;20045;-43
2022/08/16 06:31:15;;;;;;;5.07;4.57;;;;;;;;;;4827129;29;20507;-47
2022/08/16 06:33:51;;;;;;;12.73;9.07;;;;;;;;;;4827720;29;20107;-46
2022/08/16 06:36:23;;;;;;;6.93;5.80;;;;;;;;;;4842681;29;20081;-45
2022/08/16 06:39:16;;;;;;;6.60;4.75;;;;;;;;;;4842613;29;20051;-46
2022/08/16 06:41:58;;;;;;;5.47;4.40;;;;;;;;;;4842882;29;20053;-46
2022/08/16 06:44:45;;;;;;;7.95;5.07;;;;;;;;;;4843608;29;20076;-50
2022/08/16 06:47:28;;;;;;;5.65;4.38;;;;;;;;;;4842427;29;20443;-47
2022/08/16 06:50:17;;;;;;;6.78;4.75;;;;;;;;;;4843646;29;20064;-46
2022/08/16 06:52:56;;;;;;;6.28;4.72;;;;;;;;;;4841986;29;20049;-44
2022/08/16 06:55:29;;;;;;;18.33;13.75;;;;;;;;;;4842415;29;20456;-49
2022/08/16 06:58:04;;;;;;;9.65;8.02;;;;;;;;;;4843587;29;20419;-45
2022/08/16 07:00:35;;;;;;;6.60;5.07;;;;;;;;;;4827243;29;20060;-46
2022/08/16 07:03:08;;;;;;;5.78;4.60;;;;;;;;;;4827024;29;20517;-45
2022/08/16 07:05:56;;;;;;;7.57;4.95;;;;;;;;;;4826767;29;20078;-46
2022/08/16 07:08:32;;;;;;;8.43;4.70;;;;;;;;;;4842222;29;20510;-46
2022/08/16 07:11:00;;;;;;;5.60;4.50;;;;;;;;;;4842057;29;20522;-45
2022/08/16 07:13:32;;;;;;;5.70;4.80;;;;;;;;;;4841896;29;20050;-46
2022/08/16 07:16:21;;;;;;;4.57;4.07;;;;;;;;;;4826505;29;20334;-46
2022/08/16 07:18:56;;;;;;;6.90;4.55;;;;;;;;;;4825203;29;20464;-49
2022/08/16 07:21:31;;;;;;;6.38;4.70;;;;;;;;;;4824963;29;20755;-45
2022/08/16 07:24:19;;;;;;;5.90;4.32;;;;;;;;;;4823137;29;20058;-46
2022/08/16 07:27:02;;;;;;;5.72;4.43;;;;;;;;;;4823413;29;20069;-47
2022/08/16 07:29:36;;;;;;;6.82;4.68;;;;;;;;;;4824755;29;20472;-46
2022/08/16 07:32:08;;;;;;;6.18;4.90;;;;;;;;;;4824839;29;20050;-45
2022/08/16 07:34:36;;;;;;;7.53;4.47;;;;;;;;;;4823429;29;20518;-46
2022/08/16 07:37:15;;;;;;;10.10;7.07;;;;;;;;;;4823294;29;20106;-44
2022/08/16 07:40:03;;;;;;;7.55;4.57;;;;;;;;;;4823733;29;20059;-46
2022/08/16 07:42:41;;;;;;;6.55;4.00;;;;;;;;;;4822882;29;20050;-46
2022/08/16 07:45:09;;;;;;;6.32;4.45;;;;;;;;;;4823380;29;20052;-45
2022/08/16 07:47:43;;;;;;;6.07;4.50;;;;;;;;;;4823093;29;20132;-45
2022/08/16 07:50:13;;;;;;;5.78;4.80;;;;;;;;;;4823146;29;20054;-45
2022/08/16 07:53:00;;;;;;;5.90;4.20;;;;;;;;;;4823028;29;20483;-45
2022/08/16 07:55:29;;;;;;;5.53;4.13;;;;;;;;;;4822898;29;20077;-47
2022/08/16 07:58:17;;;;;;;7.68;4.50;;;;;;;;;;4823101;29;20051;-46
2022/08/16 08:01:05;;;;;;;7.32;4.80;;;;;;;;;;4829580;29;20054;-48
2022/08/16 08:03:44;;;;;;;14.23;8.90;;;;;;;;;;4840985;29;20046;-47
2022/08/16 08:06:22;;;;;;;12.40;6.38;;;;;;;;;;4841059;29;20069;-45
2022/08/16 08:08:54;;;;;;;8.23;4.68;;;;;;;;;;4840801;29;20460;-48
2022/08/16 08:11:27;;;;;;;7.57;4.00;;;;;;;;;;4840988;29;20054;-44
2022/08/16 08:13:59;;;;;;;5.97;4.47;;;;;;;;;;4825312;29;20050;-45
2022/08/16 08:16:35;;;;;;;5.45;4.43;;;;;;;;;;4841980;29;20078;-45
2022/08/16 08:19:22;;;;;;;5.15;4.30;;;;;;;;;;4835654;29;20103;-46
2022/08/16 08:21:53;;;;;;;6.68;3.90;;;;;;;;;;4822512;29;20080;-49
2022/08/16 08:24:38;;;;;;;4.88;4.13;;;;;;;;;;4819613;29;20082;-48
2022/08/16 08:27:11;;;;;;;5.30;4.55;;;;;;;;;;4819141;29;20539;-47
2022/08/16 08:29:50;;;;;;;5.60;4.65;;;;;;;;;;4805313;29;20515;-43
2022/08/16 08:32:39;;;;;;;5.68;4.43;;;;;;;;;;4819662;29;20046;-44
2022/08/16 08:35:26;;;;;;;6.00;4.55;;;;;;;;;;4805237;29;20549;-46
2022/08/16 08:37:56;;;;;;;5.43;4.13;;;;;;;;;;4805447;29;20065;-46
2022/08/16 08:40:28;;;;;;;5.90;4.72;;;;;;;;;;4819300;29;20046;-43
2022/08/16 08:42:58;;;;;;;5.60;4.57;;;;;;;;;;4819283;29;20050;-44
2022/08/16 08:45:41;;;;;;;6.70;5.03;;;;;;;;;;4819245;29;20138;-47
2022/08/16 08:48:16;;;;;;;5.50;4.47;;;;;;;;;;4819115;29;20047;-46
2022/08/16 08:51:11;;;;;;;8.05;4.82;;;;;;;;;;4819055;29;20192;-46
2022/08/16 08:53:58;;;;;;;8.00;4.70;;;;;;;;;;4818183;29;20055;-46
2022/08/16 08:56:31;;;;;;;6.43;4.93;;;;;;;;;;4819198;29;20058;-45
2022/08/16 08:59:07;;;;;;;9.48;4.65;;;;;;;;;;4819114;29;20142;-50
2022/08/16 09:01:49;;;;;;;5.53;4.50;;;;;;;;;;4805037;29;20094;-49
2022/08/16 09:04:31;;;;;;;8.52;4.95;;;;;;;;;;4804984;29;20406;-46
2022/08/16 09:07:02;;;;;;;4.85;4.35;;;;;;;;;;4818836;29;20047;-52
2022/08/16 09:09:32;;;;;;;5.78;4.18;;;;;;;;;;4818859;29;20051;-50
2022/08/16 09:12:09;;;;;;;7.03;5.28;;;;;;;;;;4819084;29;20119;-43
2022/08/16 09:15:01;;;;;;;9.43;5.67;;;;;;;;;;4818727;29;20518;-45
2022/08/16 09:17:30;;;;;;;6.28;4.53;;;;;;;;;;4818674;29;20047;-46
2022/08/16 09:20:18;;;;;;;6.15;4.35;;;;;;;;;;4818725;29;20465;-47
2022/08/16 09:22:49;;;;;;;4.88;4.00;;;;;;;;;;4808360;29;20046;-48
2022/08/16 09:25:24;;;;;;;5.22;4.30;;;;;;;;;;4840014;29;20069;-50
2022/08/16 09:28:09;;;;;;;8.40;4.45;;;;;;;;;;4839858;29;20046;-44
2022/08/16 09:30:43;;;;;;;7.63;4.45;;;;;;;;;;4840056;29;20045;-46
2022/08/16 09:33:17;;;;;;;6.68;4.50;;;;;;;;;;4839737;29;20085;-43
2022/08/16 09:35:48;;;;;;;4.97;4.47;;;;;;;;;;4841036;29;20038;-45
2022/08/16 09:38:22;;;;;;;5.93;4.38;;;;;;;;;;4840872;29;20545;-44
2022/08/16 09:41:00;;;;;;;6.43;4.65;;;;;;;;;;4840662;29;20060;-52
2022/08/16 09:43:28;;;;;;;7.97;5.10;;;;;;;;;;4840428;29;20432;-47
2022/08/16 09:46:16;;;;;;;7.82;5.57;;;;;;;;;;4841054;29;20065;-49
2022/08/16 09:49:03;;;;;;;7.43;4.60;;;;;;;;;;4840942;29;20042;-45
2022/08/16 09:51:34;;;;;;;5.20;4.07;;;;;;;;;;4840733;29;20145;-48
2022/08/16 09:54:04;;;;;;;4.72;4.20;;;;;;;;;;4840694;29;20045;-45
2022/08/16 09:56:38;;;;;;;48.10;36.25;;;;;;;;;;4840793;29;20046;-45
2022/08/16 09:59:20;;;;;;;8.93;6.20;;;;;;;;;;4840688;29;20459;-45
2022/08/16 10:01:49;;;;;;;7.45;4.28;;;;;;;;;;4840595;29;20079;-48
2022/08/16 10:04:18;;;;;;;6.03;4.10;;;;;;;;;;4842554;29;20082;-49
2022/08/16 10:07:03;;;;;;;7.70;4.70;;;;;;;;;;4844104;29;20684;-45
2022/08/16 10:09:43;;;;;;;6.47;4.85;;;;;;;;;;4844288;29;20042;-46
2022/08/16 10:15:26;;;;;;;5.10;4.60;;;;;;;;;;4844157;29;20038;-45
2022/08/16 10:17:57;;;;;;;8.27;4.80;;;;;;;;;;4844442;29;20042;-45
2022/08/16 10:20:33;;;;;;;7.20;4.88;;;;;;;;;;4830858;29;20051;-47
2022/08/16 10:23:03;;;;;;;8.95;4.95;;;;;;;;;;4825441;29;20093;-48
2022/08/16 10:25:36;;;;;;;10.18;5.30;;;;;;;;;;4825476;29;20093;-45
2022/08/16 10:28:24;;;;;;;8.32;5.82;;;;;;;;;;4825536;29;20042;-50
2022/08/16 10:31:00;;;;;;;6.40;3.75;;;;;;;;;;4825700;29;20441;-47
2022/08/16 10:33:32;;;;;;;6.13;3.20;;;;;;;;;;4824722;29;20464;-47
2022/08/16 10:36:06;;;;;;;11.43;3.70;;;;;;;;;;4824660;29;20547;-48
2022/08/16 10:38:38;;;;;;;8.15;3.55;;;;;;;;;;4825616;29;20038;-44
2022/08/16 10:41:09;;;;;;;18.92;12.48;;;;;;;;;;4825372;29;20582;-47
2022/08/16 10:43:42;;;;;;;4.70;3.78;;;;;;;;;;4825322;29;20392;-44
2022/08/16 10:46:11;;;;;;;6.88;3.38;;;;;;;;;;4825181;29;20107;-44
2022/08/16 10:48:59;;;;;;;6.00;3.67;;;;;;;;;;4824775;29;20046;-44
2022/08/16 10:51:27;;;;;;;5.13;3.60;;;;;;;;;;4824970;29;20078;-45
2022/08/16 10:54:14;;;;;;;4.85;3.50;;;;;;;;;;4823679;29;20046;-46
2022/08/16 10:56:58;;;;;;;7.78;3.65;;;;;;;;;;4825096;29;20053;-44
2022/08/16 10:59:30;;;;;;;5.40;3.58;;;;;;;;;;4824103;29;20117;-46
2022/08/16 11:01:59;;;;;;;8.10;4.13;;;;;;;;;;4824852;29;20055;-44
2022/08/16 11:04:47;;;;;;;7.18;4.03;;;;;;;;;;4824770;29;20130;-45
2022/08/16 11:07:35;;;;;;;3.95;3.55;;;;;;;;;;4825069;29;20038;-44
2022/08/16 11:10:24;;;;;;;6.50;3.50;;;;;;;;;;4824785;29;20457;-44
2022/08/16 11:13:22;;;;;;;5.60;3.45;;;;;;;;;;4824534;29;20088;-46
2022/08/16 11:16:11;;;;;;;9.85;3.90;;;;;;;;;;4824202;29;20050;-44
2022/08/16 11:18:59;;;;;;;4.38;3.50;;;;;;;;;;4826562;29;20043;-45
2022/08/16 11:21:41;;;;;;;8.50;3.72;;;;;;;;;;4843205;29;20507;-45
2022/08/16 11:24:28;;;;;;;3.85;3.45;;;;;;;;;;4842793;29;20491;-45
2022/08/16 11:27:10;;;;;;;6.18;3.60;;;;;;;;;;4842803;29;20042;-46
2022/08/16 11:29:48;;;;;;;7.68;3.60;;;;;;;;;;4842785;29;20064;-45
2022/08/16 11:32:20;;;;;;;4.13;3.67;;;;;;;;;;4842822;29;20081;-47
2022/08/16 11:34:56;;;;;;;23.70;18.20;;;;;;;;;;4842936;29;20058;-45
2022/08/16 11:37:44;;;;;;;5.43;4.28;;;;;;;;;;4842934;29;20172;-44
2022/08/16 11:40:40;;;;;;;6.35;3.45;;;;;;;;;;4842548;29;20045;-50
2022/08/16 11:43:12;;;;;;;5.20;3.45;;;;;;;;;;4842712;29;20075;-47
2022/08/16 11:45:43;;;;;;;4.18;3.40;;;;;;;;;;4841309;29;20049;-46
2022/08/16 11:48:24;;;;;;;5.10;3.55;;;;;;;;;;4828456;29;20046;-47
2022/08/16 11:50:55;;;;;;;5.43;4.05;;;;;;;;;;4823875;29;20050;-45
2022/08/16 11:53:23;;;;;;;6.32;3.65;;;;;;;;;;4823086;29;20065;-44
2022/08/16 11:55:52;;;;;;;5.20;3.67;;;;;;;;;;4823913;29;20100;-45
2022/08/16 11:58:26;;;;;;;4.72;3.65;;;;;;;;;;4824215;29;20074;-43
2022/08/16 12:00:56;;;;;;;4.47;3.40;;;;;;;;;;4824022;29;20046;-46
2022/08/16 12:03:30;;;;;;;5.97;3.17;;;;;;;;;;4823705;29;20415;-48
2022/08/16 12:06:12;;;;;;;7.43;3.72;;;;;;;;;;4823933;29;20058;-46
2022/08/16 12:08:57;;;;;;;5.63;3.50;;;;;;;;;;4823132;29;20465;-44
2022/08/16 12:11:29;;;;;;;5.93;3.45;;;;;;;;;;4823736;29;20050;-46
2022/08/16 12:14:02;;;;;;;6.43;3.58;;;;;;;;;;4823425;29;20050;-46
2022/08/16 12:16:32;;;;;;;4.78;3.50;;;;;;;;;;4807624;29;20435;-46
2022/08/16 12:19:07;;;;;;;5.05;3.40;;;;;;;;;;4823634;29;20499;-47
2022/08/16 12:21:41;;;;;;;7.57;3.75;;;;;;;;;;4824154;29;20050;-44
2022/08/16 12:24:25;;;;;;;4.35;3.67;;;;;;;;;;4823567;29;20117;-46
2022/08/16 12:26:53;;;;;;;4.35;3.55;;;;;;;;;;4823136;29;20054;-47
2022/08/16 12:29:21;;;;;;;5.93;3.72;;;;;;;;;;4823604;29;20065;-46
2022/08/16 12:31:52;;;;;;;8.00;3.85;;;;;;;;;;4823451;29;20062;-43
2022/08/16 12:34:41;;;;;;;5.22;3.97;;;;;;;;;;4823706;29;20565;-44
2022/08/16 12:37:19;;;;;;;6.78;3.53;;;;;;;;;;4823434;29;20046;-44
2022/08/16 12:39:57;;;;;;;5.53;3.47;;;;;;;;;;4823588;29;20054;-47
2022/08/16 12:42:28;;;;;;;6.03;3.78;;;;;;;;;;4823401;29;20046;-47
2022/08/16 12:45:05;;;;;;;5.65;3.13;;;;;;;;;;4806809;29;20065;-44
2022/08/16 12:50:37;;;;;;;5.18;3.25;;;;;;;;;;4823521;29;20495;-46
2022/08/16 12:53:05;;;;;;;4.72;3.47;;;;;;;;;;4823063;29;20051;-48
2022/08/16 12:55:35;;;;;;;4.60;3.30;;;;;;;;;;4823068;29;20055;-44
2022/08/16 12:58:10;;;;;;;13.82;7.15;;;;;;;;;;4821745;29;20046;-47
2022/08/16 13:00:58;;;;;;;7.43;3.88;;;;;;;;;;4823173;29;20499;-45
2022/08/16 13:03:30;;;;;;;10.43;4.00;;;;;;;;;;4823135;29;20042;-46
2022/08/16 13:06:05;;;;;;;6.07;3.75;;;;;;;;;;4823229;29;20507;-44
2022/08/16 13:08:33;;;;;;;6.68;4.68;;;;;;;;;;4823442;29;20050;-48
2022/08/16 13:11:03;;;;;;;7.57;5.07;;;;;;;;;;4822988;29;20944;-46
2022/08/16 13:13:34;;;;;;;7.10;4.07;;;;;;;;;;4823103;29;20055;-45
2022/08/16 13:16:04;;;;;;;8.52;3.70;;;;;;;;;;4822813;29;20050;-47
2022/08/16 13:18:47;;;;;;;6.15;3.50;;;;;;;;;;4823292;29;20085;-44
2022/08/16 13:21:19;;;;;;;10.43;3.25;;;;;;;;;;4840790;29;20056;-45
2022/08/16 13:23:49;;;;;;;3.92;3.28;;;;;;;;;;4839868;29;20102;-45
2022/08/16 13:26:23;;;;;;;4.40;3.42;;;;;;;;;;4841298;29;20060;-43
2022/08/16 13:28:53;;;;;;;4.63;2.95;;;;;;;;;;4840937;29;20049;-44
2022/08/16 13:31:20;;;;;;;8.80;3.58;;;;;;;;;;4840566;29;20053;-46
2022/08/16 13:33:50;;;;;;;3.85;2.95;;;;;;;;;;4840113;29;20045;-47
2022/08/16 13:36:24;;;;;;;4.15;3.13;;;;;;;;;;4840229;29;20466;-44
2022/08/16 13:39:12;;;;;;;6.90;3.55;;;;;;;;;;4841383;29;20049;-45
2022/08/16 13:41:40;;;;;;;6.10;3.55;;;;;;;;;;4845035;29;20046;-45
2022/08/16 13:44:07;;;;;;;8.88;3.38;;;;;;;;;;4844354;29;20048;-46
2022/08/16 13:46:36;;;;;;;5.38;3.42;;;;;;;;;;4844887;29;20042;-46
2022/08/16 13:49:04;;;;;;;7.18;3.47;;;;;;;;;;4844084;29;20042;-46
2022/08/16 13:51:32;;;;;;;5.50;3.75;;;;;;;;;;4844136;29;20514;-45
2022/08/16 13:54:04;;;;;;;7.20;3.20;;;;;;;;;;4844192;29;20045;-48
2022/08/16 13:56:34;;;;;;;6.15;3.70;;;;;;;;;;4844382;29;20042;-45
2022/08/16 13:59:05;;;;;;;;;;;;;;;;;;4844512;29;20129;-44
2022/08/16 14:01:43;;;;;;;6.45;4.10;;;;;;;;;;4844522;29;19970;-49
2022/08/16 14:04:11;;;;;;;4.72;3.60;;;;;;;;;;4844230;29;20095;-48
2022/08/16 14:06:54;;;;;;;4.20;3.42;;;;;;;;;;4844422;29;20099;-45
2022/08/16 14:09:22;;;;;;;8.57;4.22;;;;;;;;;;4844135;29;20054;-44
2022/08/16 14:11:50;;;;;;;6.88;3.67;;;;;;;;;;4844165;29;20046;-44
2022/08/16 14:14:20;;;;;;;5.68;3.65;;;;;;;;;;4843222;29;20459;-44
2022/08/16 14:16:59;;;;;;;5.15;3.83;;;;;;;;;;4844075;29;21877;-46
2022/08/16 14:19:27;;;;;;;7.63;3.80;;;;;;;;;;4838619;29;20068;-44
2022/08/16 14:21:58;;;;;;;7.32;4.40;;;;;;;;;;4824412;29;20468;-45
2022/08/16 14:24:46;;;;;;;8.65;4.40;;;;;;;;;;4825564;29;20094;-43
2022/08/16 14:27:18;;;;;;;9.93;5.47;;;;;;;;;;4825293;29;20043;-44
2022/08/16 14:29:49;;;;;;;5.30;4.20;;;;;;;;;;4825737;29;20406;-48
2022/08/16 14:32:21;;;;;;;5.60;4.40;;;;;;;;;;4825474;29;20068;-46
2022/08/16 14:35:06;;;;;;;9.48;4.57;;;;;;;;;;4825383;29;20396;-47
2022/08/16 14:37:35;;;;;;;7.57;4.82;;;;;;;;;;4824006;29;20058;-45
2022/08/16 14:40:06;;;;;;;6.47;4.70;;;;;;;;;;4825554;29;20136;-43
2022/08/16 14:42:34;;;;;;;5.82;3.78;;;;;;;;;;4825582;29;20081;-44
2022/08/16 14:45:04;;;;;;;5.05;4.28;;;;;;;;;;4825075;29;20050;-47
2022/08/16 14:47:35;;;;;;;4.97;4.22;;;;;;;;;;4825502;29;20573;-47
2022/08/16 14:50:06;;;;;;;5.55;4.43;;;;;;;;;;4824139;29;20043;-44
2022/08/16 14:52:34;;;;;;;5.32;4.60;;;;;;;;;;4825261;29;20078;-44
2022/08/16 14:55:22;;;;;;;5.63;5.03;;;;;;;;;;4823378;29;20060;-46
2022/08/16 14:57:49;;;;;;;5.53;4.63;;;;;;;;;;4824463;29;20564;-50
2022/08/16 15:00:22;;;;;;;9.90;4.95;;;;;;;;;;4824695;29;20042;-45
2022/08/16 15:03:01;;;;;;;7.03;4.60;;;;;;;;;;4824980;29;20042;-46
2022/08/16 15:05:30;;;;;;;7.95;4.90;;;;;;;;;;4824600;29;20513;-45
2022/08/16 15:07:59;;;;;;;9.10;4.88;;;;;;;;;;4823906;29;20453;-45
2022/08/16 15:10:27;;;;;;;5.68;4.47;;;;;;;;;;4824882;29;20038;-47
2022/08/16 15:12:59;;;;;;;6.65;4.35;;;;;;;;;;4824318;29;20110;-46
2022/08/16 15:15:28;;;;;;;7.93;4.40;;;;;;;;;;4824681;29;20419;-48
2022/08/16 15:17:57;;;;;;;9.65;5.43;;;;;;;;;;4824553;29;20051;-50
2022/08/16 15:20:31;;;;;;;6.10;4.95;;;;;;;;;;4837890;29;20513;-44
2022/08/16 15:23:04;;;;;;;5.68;4.57;;;;;;;;;;4842610;29;20050;-43
2022/08/16 15:25:35;;;;;;;11.30;4.72;;;;;;;;;;4842861;29;20451;-45
2022/08/16 15:28:09;;;;;;;6.13;4.65;;;;;;;;;;4842854;29;20090;-44
2022/08/16 15:30:57;;;;;;;7.97;4.80;;;;;;;;;;4842645;29;20042;-44
2022/08/16 15:33:30;;;;;;;7.97;5.00;;;;;;;;;;4842627;29;20041;-51
2022/08/16 15:35:58;;;;;;;8.35;4.60;;;;;;;;;;4842067;29;20049;-44
2022/08/16 15:38:28;;;;;;;6.65;4.85;;;;;;;;;;4842496;29;20041;-48
2022/08/16 15:41:30;;;;;;;7.95;5.22;;;;;;;;;;4842451;29;20048;-45